Time;durP1;ratioP1;P1;durP2;ratioP2;P2;SDS_P1;SDS_P2;PMS_P1;PMS_P2;Temp;Humidity;BMP_temperature;BMP_pressure;BME280_temperature;BME280_humidity;BME280_pressure;Samples;Min_cycle;Max_cycle;Signal;HPM_P1;HPM_P2
2021/09/19 00:03:08;;;;;;;3.30;2.30;;;;;;;15.82;54.90;97874.03;8452074;28;20206;-65
2021/09/19 00:07:12;;;;;;;5.77;2.77;;;;;;;15.78;54.75;97861.25;8452489;28;20207;-65
2021/09/19 00:11:14;;;;;;;4.43;2.70;;;;;;;16.01;53.79;97859.69;8452406;28;20614;-64
2021/09/19 00:15:20;;;;;;;4.37;2.90;;;;;;;15.69;54.56;97854.00;8452775;28;20211;-65
2021/09/19 00:19:23;;;;;;;3.33;2.97;;;;;;;15.67;54.83;97858.50;8452769;28;20202;-65
2021/09/19 00:23:26;;;;;;;4.57;3.30;;;;;;;15.68;55.11;97855.78;8452457;28;20210;-65
2021/09/19 00:27:31;;;;;;;3.40;3.00;;;;;;;15.64;54.63;97855.16;8452130;28;20296;-64
2021/09/19 00:31:36;;;;;;;3.10;2.80;;;;;;;15.67;54.64;97858.50;8452299;28;20205;-64
2021/09/19 00:35:39;;;;;;;4.60;3.20;;;;;;;15.64;55.02;97856.94;8451885;28;20223;-65
2021/09/19 00:39:42;;;;;;;3.40;2.90;;;;;;;15.58;55.03;97839.91;8451902;28;20211;-65
2021/09/19 00:43:44;;;;;;;4.77;3.13;;;;;;;15.58;55.67;97845.13;8451878;28;20198;-65
2021/09/19 00:47:49;;;;;;;6.00;2.70;;;;;;;15.53;55.93;97851.59;8451592;28;20498;-65
2021/09/19 00:51:53;;;;;;;3.10;2.80;;;;;;;15.51;55.15;97851.69;8451545;28;20486;-65
2021/09/19 00:55:58;;;;;;;4.97;2.97;;;;;;;15.34;55.23;97852.78;8451221;28;20241;-65
2021/09/19 01:00:03;;;;;;;4.90;3.37;;;;;;;15.68;54.45;97847.97;8450564;28;20418;-65
2021/09/19 01:04:08;;;;;;;4.40;3.03;;;;;;;15.34;55.33;97836.31;8451159;28;20209;-65
2021/09/19 01:08:12;;;;;;;3.60;2.27;;;;;;;15.35;55.45;97833.59;8450836;28;20233;-64
2021/09/19 01:12:15;;;;;;;2.27;1.80;;;;;;;15.31;55.67;97833.94;8450983;28;20198;-64
2021/09/19 01:16:19;;;;;;;2.43;2.00;;;;;;;15.38;55.01;97825.59;8450250;28;20199;-64
2021/09/19 01:20:24;;;;;;;2.97;2.30;;;;;;;15.28;54.82;97819.28;8450512;28;20493;-64
2021/09/19 01:24:28;;;;;;;5.70;2.40;;;;;;;15.27;55.66;97822.00;8451031;28;20490;-64
2021/09/19 01:28:31;;;;;;;3.93;2.00;;;;;;;15.27;55.42;97822.84;8450570;28;20410;-64
2021/09/19 01:32:34;;;;;;;3.93;1.97;;;;;;;15.16;55.58;97831.38;8450172;28;20224;-64
2021/09/19 01:36:37;;;;;;;2.23;1.97;;;;;;;15.21;55.58;97821.47;8450161;28;20492;-64
2021/09/19 01:40:42;;;;;;;3.13;2.20;;;;;;;15.15;55.38;97827.06;8450086;28;20205;-65
2021/09/19 01:44:44;;;;;;;2.30;2.00;;;;;;;15.14;55.50;97824.59;8450190;28;20199;-64
2021/09/19 01:48:47;;;;;;;2.20;2.00;;;;;;;15.09;56.04;97817.03;8449779;28;20226;-65
2021/09/19 01:52:50;;;;;;;3.57;2.53;;;;;;;15.11;55.42;97807.34;8449744;28;20198;-65
2021/09/19 01:56:55;;;;;;;4.40;2.40;;;;;;;15.05;54.90;97813.78;8449645;28;20245;-64
2021/09/19 02:00:58;;;;;;;2.80;2.40;;;;;;;14.99;55.20;97808.16;8449824;28;20502;-65
2021/09/19 02:05:02;;;;;;;4.20;2.50;;;;;;;15.00;55.07;97812.41;8449723;28;20494;-65
2021/09/19 02:09:05;;;;;;;4.60;2.70;;;;;;;14.89;55.15;97802.72;8449345;28;20221;-64
2021/09/19 02:13:12;;;;;;;3.43;2.77;;;;;;;14.86;54.74;97806.31;8449494;28;20221;-64
2021/09/19 02:17:15;;;;;;;3.17;2.83;;;;;;;14.85;54.99;97803.84;8449247;28;20198;-65
2021/09/19 02:21:18;;;;;;;3.47;2.50;;;;;;;14.84;55.06;97789.13;8449244;28;20202;-64
2021/09/19 02:25:21;;;;;;;3.57;2.70;;;;;;;14.78;55.19;97795.56;8449310;28;20493;-64
2021/09/19 02:29:25;;;;;;;2.50;2.30;;;;;;;14.75;55.38;97779.28;8452158;28;20222;-65
2021/09/19 02:33:28;;;;;;;3.00;2.70;;;;;;;14.76;55.97;97780.97;8456087;28;20222;-64
2021/09/19 02:37:31;;;;;;;3.73;2.40;;;;;;;14.78;55.68;97776.50;8456134;28;20550;-64
2021/09/19 02:41:35;;;;;;;2.83;2.40;;;;;;;14.85;55.89;97770.78;8455884;28;20380;-64
2021/09/19 02:45:39;;;;;;;4.03;2.43;;;;;;;14.77;55.86;97764.38;8455643;28;20198;-64
2021/09/19 02:49:42;;;;;;;2.80;2.60;;;;;;;14.81;55.47;97747.59;8455117;28;20226;-65
2021/09/19 02:53:46;;;;;;;3.40;2.70;;;;;;;14.72;55.22;97756.03;8455203;28;20214;-65
2021/09/19 02:57:49;;;;;;;4.23;2.40;;;;;;;14.76;55.09;97757.50;8455344;28;20210;-64
2021/09/19 03:01:53;;;;;;;3.07;2.77;;;;;;;14.71;54.89;97741.31;8454972;28;20209;-64
2021/09/19 03:05:56;;;;;;;4.73;2.73;;;;;;;14.57;55.08;97743.06;8454813;28;20305;-64
2021/09/19 03:09:59;;;;;;;2.80;2.50;;;;;;;14.59;55.42;97742.97;8454767;28;20233;-64
2021/09/19 03:14:02;;;;;;;3.07;2.40;;;;;;;14.61;55.06;97736.69;8454908;28;20198;-64
2021/09/19 03:18:08;;;;;;;3.07;2.77;;;;;;;14.56;55.38;97737.91;8454559;28;20205;-65
2021/09/19 03:22:11;;;;;;;2.83;2.43;;;;;;;14.51;55.21;97733.00;8454558;28;20531;-64
2021/09/19 03:26:13;;;;;;;2.80;2.60;;;;;;;14.51;54.71;97725.19;8454411;28;20198;-64
2021/09/19 03:30:17;;;;;;;2.70;2.50;;;;;;;14.52;54.64;97731.22;8454057;28;20222;-64
2021/09/19 03:34:21;;;;;;;4.50;2.80;;;;;;;14.41;54.24;97731.88;8453999;28;20587;-64
2021/09/19 03:38:24;;;;;;;3.20;2.70;;;;;;;14.34;54.45;97720.22;8453904;28;20206;-64
2021/09/19 03:42:27;;;;;;;3.10;2.57;;;;;;;14.31;54.09;97731.63;8453081;28;20494;-65
2021/09/19 03:46:30;;;;;;;3.50;2.50;;;;;;;14.31;54.35;97726.44;8453602;28;20210;-64
2021/09/19 03:50:34;;;;;;;5.23;2.90;;;;;;;14.30;54.63;97718.72;8453450;28;20556;-64
2021/09/19 03:54:37;;;;;;;3.80;3.13;;;;;;;14.21;55.06;97702.75;8453108;28;20234;-64
2021/09/19 03:58:40;;;;;;;2.90;2.47;;;;;;;14.24;55.45;97707.78;8453358;28;20486;-64
2021/09/19 04:02:43;;;;;;;2.80;2.60;;;;;;;14.22;55.59;97712.25;8453127;28;20202;-64
2021/09/19 04:06:47;;;;;;;6.97;2.93;;;;;;;14.30;55.86;97716.97;8453186;28;20567;-64
2021/09/19 04:10:50;;;;;;;5.03;3.10;;;;;;;14.26;56.50;97710.28;8453027;28;20533;-65
2021/09/19 04:14:53;;;;;;;5.63;2.73;;;;;;;14.24;55.82;97701.69;8452882;28;20316;-64
2021/09/19 04:18:56;;;;;;;3.33;2.90;;;;;;;14.23;55.15;97705.25;8452558;28;20205;-64
2021/09/19 04:23:00;;;;;;;4.83;3.23;;;;;;;14.15;54.92;97712.72;8452640;28;20198;-64
2021/09/19 04:27:03;;;;;;;4.80;3.20;;;;;;;14.08;55.25;97717.47;8452449;28;20207;-64
2021/09/19 04:31:06;;;;;;;6.47;2.93;;;;;;;14.12;55.27;97713.72;8452313;28;20222;-65
2021/09/19 04:35:10;;;;;;;3.43;2.90;;;;;;;14.10;55.50;97710.41;8452034;28;20219;-64
2021/09/19 04:39:14;;;;;;;3.43;3.13;;;;;;;14.07;56.28;97705.41;8451983;28;20199;-64
2021/09/19 04:43:17;;;;;;;4.63;3.70;;;;;;;14.10;57.05;97712.16;8451824;28;20209;-64
2021/09/19 04:47:20;;;;;;;4.03;3.73;;;;;;;14.11;57.77;97709.47;8451731;28;20383;-64
2021/09/19 04:51:24;;;;;;;7.00;3.50;;;;;;;14.17;57.36;97714.28;8451570;28;20230;-64
2021/09/19 04:55:28;;;;;;;4.30;3.67;;;;;;;14.10;56.76;97714.78;8451220;28;20241;-64
2021/09/19 04:59:31;;;;;;;3.97;3.23;;;;;;;14.08;55.93;97720.06;8451400;28;20486;-65
2021/09/19 05:03:33;;;;;;;3.80;2.97;;;;;;;14.04;55.81;97718.59;8451111;28;20525;-64
2021/09/19 05:07:37;;;;;;;3.20;2.90;;;;;;;14.03;55.40;97714.31;8451185;28;20269;-64
2021/09/19 05:11:42;;;;;;;3.53;3.20;;;;;;;14.07;56.23;97721.84;8450946;28;20228;-64
2021/09/19 05:15:45;;;;;;;4.53;3.40;;;;;;;14.18;55.96;97718.56;8450970;28;20216;-64
2021/09/19 05:19:48;;;;;;;3.83;3.37;;;;;;;14.38;56.58;97716.47;8450686;28;20202;-64
2021/09/19 05:23:51;;;;;;;4.30;3.00;;;;;;;14.54;57.12;97714.53;8449914;28;20198;-65
2021/09/19 05:27:59;;;;;;;3.40;2.90;;;;;;;14.70;57.23;97721.41;8450603;28;20371;-64
2021/09/19 05:32:02;;;;;;;3.30;3.00;;;;;;;14.82;56.63;97728.44;8450338;28;20222;-65
2021/09/19 05:36:05;;;;;;;4.03;3.47;;;;;;;14.84;55.01;97736.97;8450114;28;20419;-64
2021/09/19 05:40:10;;;;;;;4.33;3.50;;;;;;;14.94;54.34;97734.59;8450054;28;20202;-65
2021/09/19 05:44:14;;;;;;;3.97;3.57;;;;;;;15.18;55.10;97737.38;8448473;28;20197;-65
2021/09/19 05:48:17;;;;;;;4.37;3.47;;;;;;;15.40;54.79;97737.59;8448825;28;20201;-65
2021/09/19 05:52:20;;;;;;;4.00;3.70;;;;;;;15.48;55.97;97742.31;8448877;28;20404;-64
2021/09/19 05:56:23;;;;;;;3.93;3.63;;;;;;;15.53;56.42;97747.19;8448808;28;20227;-65
2021/09/19 06:00:27;;;;;;;3.80;3.50;;;;;;;15.74;56.87;97737.09;8448750;28;20194;-65
2021/09/19 06:04:30;;;;;;;4.67;3.73;;;;;;;15.94;57.36;97736.56;8448254;28;20197;-65
2021/09/19 06:08:33;;;;;;;3.53;3.23;;;;;;;16.07;57.32;97735.69;8449026;28;20194;-65
2021/09/19 06:12:36;;;;;;;4.73;4.20;;;;;;;16.25;57.30;97744.84;8449438;28;20226;-65
2021/09/19 06:16:41;;;;;;;5.93;4.10;;;;;;;16.45;56.78;97755.63;8449286;28;20198;-65
2021/09/19 06:20:44;;;;;;;6.37;4.30;;;;;;;16.64;56.20;97750.78;8449268;28;20206;-65
2021/09/19 06:24:47;;;;;;;4.27;3.87;;;;;;;16.72;56.62;97750.22;8449236;28;20391;-65
2021/09/19 06:28:49;;;;;;;6.30;4.20;;;;;;;16.65;56.63;97759.44;8448602;28;20205;-65
2021/09/19 06:32:54;;;;;;;4.30;3.90;;;;;;;16.90;56.61;97754.13;8449044;28;20399;-65
2021/09/19 06:36:57;;;;;;;4.87;4.00;;;;;;;16.78;56.97;97752.38;8449511;28;20198;-64
2021/09/19 06:41:00;;;;;;;4.67;4.03;;;;;;;17.20;55.83;97763.25;8447895;28;20205;-65
2021/09/19 06:45:03;;;;;;;6.37;2.80;;;;;;;17.48;61.59;97761.22;8448961;28;20202;-64
2021/09/19 06:49:10;;;;;;;9.60;3.00;;;;;;;18.17;60.04;97759.34;8448778;28;20202;-64
2021/09/19 06:53:13;;;;;;;8.83;3.30;;;;;;;18.43;57.50;97751.22;8449002;28;20230;-64
2021/09/19 06:57:16;;;;;;;4.50;3.00;;;;;;;18.67;58.23;97755.44;8446748;28;20222;-64
2021/09/19 07:01:21;;;;;;;3.27;2.80;;;;;;;18.76;57.11;97758.13;8448054;28;20403;-64
2021/09/19 07:05:26;;;;;;;5.90;2.60;;;;;;;18.66;56.87;97757.22;8447920;28;20267;-64
2021/09/19 07:09:29;;;;;;;8.67;3.80;;;;;;;18.71;56.44;97757.66;8448337;28;20505;-64
2021/09/19 07:13:32;;;;;;;8.10;3.27;;;;;;;18.63;57.35;97760.09;8448545;28;20226;-64
2021/09/19 07:17:36;;;;;;;9.40;3.23;;;;;;;18.76;56.06;97757.31;8453233;28;20198;-64
2021/09/19 07:21:41;;;;;;;9.13;2.80;;;;;;;18.81;56.42;97754.34;8454700;28;20207;-64
2021/09/19 07:25:44;;;;;;;9.43;3.10;;;;;;;18.88;56.77;97753.72;8454421;28;20206;-64
2021/09/19 07:29:47;;;;;;;4.20;3.27;;;;;;;18.76;56.63;97752.91;8454102;28;20209;-64
2021/09/19 07:33:51;;;;;;;5.73;3.30;;;;;;;18.88;56.44;97760.75;8453944;28;20238;-64
2021/09/19 07:37:56;;;;;;;5.40;3.00;;;;;;;18.92;57.35;97756.91;8454283;28;20230;-64
2021/09/19 07:41:59;;;;;;;7.37;3.00;;;;;;;19.10;56.18;97762.47;8453902;28;20206;-64
2021/09/19 07:46:02;;;;;;;3.50;3.20;;;;;;;18.90;55.40;97770.16;8453788;28;20205;-64
2021/09/19 07:50:07;;;;;;;3.80;2.93;;;;;;;19.06;56.10;97764.50;8453838;28;20199;-64
2021/09/19 07:54:12;;;;;;;5.23;2.90;;;;;;;19.16;55.46;97769.81;8453184;28;20234;-64
2021/09/19 07:58:15;;;;;;;5.73;3.03;;;;;;;19.34;55.46;97767.44;8453383;28;20397;-64
2021/09/19 08:02:18;;;;;;;5.00;3.40;;;;;;;19.40;54.28;97773.97;8453268;28;20513;-64
2021/09/19 08:06:22;;;;;;;4.73;3.03;;;;;;;19.36;55.39;97773.41;8453106;28;20198;-64
2021/09/19 08:10:26;;;;;;;5.50;3.10;;;;;;;19.31;54.67;97770.34;8452907;28;20209;-64
2021/09/19 08:14:29;;;;;;;7.40;3.10;;;;;;;19.34;55.07;97765.69;8452794;28;20205;-64
2021/09/19 08:18:32;;;;;;;3.87;3.00;;;;;;;19.14;55.71;97769.94;8452251;28;20206;-64
2021/09/19 08:22:35;;;;;;;3.30;3.00;;;;;;;19.24;54.79;97777.88;8451556;28;20397;-64
2021/09/19 08:26:40;;;;;;;3.60;3.30;;;;;;;19.25;55.02;97776.94;8451404;28;20212;-64
2021/09/19 08:30:43;;;;;;;5.87;3.23;;;;;;;19.22;55.28;97776.38;8448590;28;20212;-64
2021/09/19 08:34:46;;;;;;;3.03;2.80;;;;;;;19.21;55.04;97779.94;8451042;28;20217;-64
2021/09/19 08:38:50;;;;;;;5.30;3.00;;;;;;;19.02;54.55;97783.25;8450757;28;20490;-64
2021/09/19 08:42:55;;;;;;;6.67;2.60;;;;;;;19.20;55.56;97776.47;8447892;28;20206;-64
2021/09/19 08:46:59;;;;;;;3.13;2.83;;;;;;;19.06;54.72;97777.63;8448353;28;20198;-64
2021/09/19 08:51:02;;;;;;;3.60;2.93;;;;;;;19.29;54.78;97788.84;8449816;28;20281;-64
2021/09/19 08:55:05;;;;;;;2.60;2.40;;;;;;;19.38;54.64;97792.53;8450237;28;20249;-64
2021/09/19 08:59:09;;;;;;;3.70;2.37;;;;;;;19.25;54.29;97797.94;8450569;28;20213;-64
2021/09/19 09:03:13;;;;;;;8.67;2.53;;;;;;;19.10;54.92;97792.16;8451079;28;20206;-64
2021/09/19 09:07:19;;;;;;;2.70;2.50;;;;;;;18.82;53.93;97784.88;8450020;28;20190;-64
2021/09/19 09:11:23;;;;;;;3.90;2.30;;;;;;;18.93;55.13;97788.28;8450086;28;20225;-64
2021/09/19 09:15:34;;;;;;;2.47;2.27;;;;;;;18.89;52.92;97789.50;8449985;28;20194;-63
2021/09/19 09:19:38;;;;;;;2.40;2.20;;;;;;;18.95;52.31;97781.13;8450500;28;20233;-65
2021/09/19 09:23:43;;;;;;;4.20;2.20;;;;;;;18.97;52.62;97782.81;8449913;28;20202;-64
2021/09/19 09:27:49;;;;;;;6.20;2.70;;;;;;;19.22;52.03;97774.56;8450786;28;20199;-65
2021/09/19 09:31:53;;;;;;;4.93;2.50;;;;;;;19.45;52.08;97770.00;8450217;28;20230;-64
2021/09/19 09:35:56;;;;;;;6.83;2.40;;;;;;;19.54;52.90;97764.00;8450229;28;20225;-65
2021/09/19 09:40:14;;;;;;;2.30;2.10;;;;;;;19.75;51.02;97770.25;8449708;28;20199;-64
2021/09/19 09:44:31;;;;;;;5.13;2.33;;;;;;;19.77;51.74;97761.25;8449318;28;20198;-64
2021/09/19 09:48:39;;;;;;;2.63;2.30;;;;;;;19.46;52.62;97763.81;8447585;28;20398;-64
2021/09/19 09:52:44;;;;;;;2.07;1.97;;;;;;;19.52;51.21;97762.47;8448841;28;20220;-64
2021/09/19 09:56:48;;;;;;;2.17;2.00;;;;;;;19.99;50.00;97757.63;8446418;28;20222;-64
2021/09/19 10:00:54;;;;;;;3.90;2.00;;;;;;;19.53;50.78;97759.72;8448671;28;20482;-64
2021/09/19 10:04:59;;;;;;;2.77;1.93;;;;;;;19.38;51.60;97758.38;8445862;28;20489;-64
2021/09/19 10:09:02;;;;;;;3.80;2.27;;;;;;;19.49;50.98;97749.59;8447548;28;20393;-64
2021/09/19 10:13:05;;;;;;;4.10;2.10;;;;;;;19.46;50.88;97740.19;8446393;28;20226;-64
2021/09/19 10:17:08;;;;;;;2.40;2.07;;;;;;;19.42;50.80;97748.44;8447845;28;20202;-64
2021/09/19 10:21:13;;;;;;;2.37;1.90;;;;;;;19.41;51.03;97747.59;8447948;28;20198;-64
2021/09/19 10:25:36;;;;;;;2.07;1.97;;;;;;;19.48;51.29;97750.56;8447994;28;20190;-65
2021/09/19 10:29:39;;;;;;;2.47;1.70;;;;;;;19.66;51.56;97743.72;8445905;28;20512;-64
2021/09/19 10:33:44;;;;;;;2.00;1.80;;;;;;;19.49;51.61;97752.22;8448104;28;20236;-65
2021/09/19 10:37:53;;;;;;;3.50;1.97;;;;;;;19.85;51.30;97752.72;8445898;28;20195;-64
2021/09/19 10:42:13;;;;;;;4.67;1.77;;;;;;;20.08;49.93;97746.28;8447825;28;20198;-64
2021/09/19 10:46:40;;;;;;;2.20;1.67;;;;;;;20.37;48.47;97745.56;8447522;28;20195;-65
2021/09/19 10:50:45;;;;;;;2.30;2.10;;;;;;;20.42;47.88;97740.72;8451425;28;20256;-65
2021/09/19 10:54:51;;;;;;;1.77;1.67;;;;;;;20.62;47.87;97740.78;8454149;28;20561;-65
2021/09/19 10:58:55;;;;;;;2.00;1.50;;;;;;;20.56;47.75;97738.66;8454520;28;20386;-65
2021/09/19 11:03:12;;;;;;;2.17;1.50;;;;;;;20.60;47.67;97726.91;8451901;28;20202;-65
2021/09/19 11:07:19;;;;;;;2.67;1.80;;;;;;;20.46;47.10;97728.13;8452905;28;20190;-66
2021/09/19 11:11:28;;;;;;;2.10;1.90;;;;;;;20.44;46.89;97725.63;8453989;28;20375;-65
2021/09/19 11:15:32;;;;;;;1.80;1.70;;;;;;;20.26;47.79;97724.66;8451629;28;20190;-65
2021/09/19 11:19:35;;;;;;;3.70;1.37;;;;;;;20.61;47.47;97726.78;8453524;28;20196;-65
2021/09/19 11:23:39;;;;;;;1.73;1.50;;;;;;;20.42;47.49;97724.94;8453198;28;20404;-65
2021/09/19 11:27:49;;;;;;;1.60;1.40;;;;;;;20.27;47.74;97721.84;8453145;28;20510;-65
2021/09/19 11:31:53;;;;;;;1.50;1.40;;;;;;;20.22;48.08;97726.72;8454043;28;20417;-64
2021/09/19 11:36:01;;;;;;;1.60;1.50;;;;;;;20.29;47.34;97726.97;8453876;28;20251;-65
2021/09/19 11:40:07;;;;;;;1.50;1.40;;;;;;;20.43;47.49;97717.91;8454098;28;20517;-65
2021/09/19 11:44:15;;;;;;;2.20;1.60;;;;;;;20.27;46.86;97715.78;8453904;28;20206;-65
2021/09/19 11:48:19;;;;;;;1.77;1.63;;;;;;;20.24;46.60;97718.69;8454055;28;20198;-65
2021/09/19 11:52:22;;;;;;;2.23;1.50;;;;;;;20.30;46.89;97718.16;8453386;28;20237;-65
2021/09/19 11:56:27;;;;;;;4.10;1.50;;;;;;;20.18;47.25;97721.84;8451806;28;20228;-66
2021/09/19 12:00:32;;;;;;;1.50;1.40;;;;;;;20.28;46.85;97723.53;8451308;28;20203;-65
2021/09/19 12:04:35;;;;;;;1.73;1.40;;;;;;;20.42;47.36;97718.84;8452020;28;20195;-64
2021/09/19 12:08:42;;;;;;;1.30;1.20;;;;;;;20.29;47.12;97719.91;8452160;28;20190;-65
2021/09/19 12:12:45;;;;;;;1.73;1.50;;;;;;;20.23;47.42;97722.28;8450763;28;20247;-65
2021/09/19 12:17:01;;;;;;;2.90;1.40;;;;;;;20.18;47.79;97720.06;8452709;28;20199;-65
2021/09/19 12:21:07;;;;;;;1.50;1.40;;;;;;;20.24;47.76;97721.31;8452489;28;20234;-65
2021/09/19 12:25:10;;;;;;;1.80;1.60;;;;;;;20.01;48.79;97720.66;8452321;28;20203;-64
2021/09/19 12:29:13;;;;;;;1.90;1.80;;;;;;;19.83;48.89;97726.56;8452058;28;20196;-65
2021/09/19 12:33:17;;;;;;;2.00;1.80;;;;;;;19.84;48.85;97728.25;8452148;28;20412;-65
2021/09/19 12:37:20;;;;;;;1.83;1.50;;;;;;;19.81;49.27;97723.22;8452212;28;20392;-65
2021/09/19 12:41:23;;;;;;;1.90;1.70;;;;;;;19.86;49.31;97720.22;8452092;28;20209;-65
2021/09/19 12:45:25;;;;;;;2.30;1.60;;;;;;;19.82;49.14;97719.66;8451917;28;20203;-66
2021/09/19 12:49:32;;;;;;;1.70;1.60;;;;;;;19.63;49.28;97720.38;8451895;28;20199;-66
2021/09/19 12:53:36;;;;;;;1.80;1.70;;;;;;;19.41;49.24;97707.41;8451692;28;20233;-66
2021/09/19 12:57:38;;;;;;;2.23;2.00;;;;;;;19.49;49.60;97707.56;8451214;28;20435;-67
2021/09/19 13:01:42;;;;;;;1.63;1.53;;;;;;;19.56;49.31;97710.53;8451316;28;20205;-66
2021/09/19 13:05:46;;;;;;;1.80;1.70;;;;;;;19.50;49.16;97712.69;8451314;28;20202;-66
2021/09/19 13:09:49;;;;;;;1.60;1.50;;;;;;;19.46;49.64;97703.41;8451149;28;20211;-66
2021/09/19 13:13:52;;;;;;;1.77;1.67;;;;;;;19.66;49.18;97704.34;8450019;28;20237;-66
2021/09/19 13:17:55;;;;;;;2.93;2.10;;;;;;;19.66;49.60;97695.63;8450985;28;20199;-67
2021/09/19 13:22:00;;;;;;;2.67;1.77;;;;;;;19.73;49.57;97704.69;8450710;28;20217;-67
2021/09/19 13:26:02;;;;;;;1.87;1.77;;;;;;;19.49;50.04;97702.31;8450596;28;20225;-66
2021/09/19 13:30:07;;;;;;;2.03;1.83;;;;;;;19.35;50.38;97700.88;8450507;28;20199;-67
2021/09/19 13:34:10;;;;;;;1.87;1.73;;;;;;;19.32;50.27;97696.72;8450141;28;20234;-66
2021/09/19 13:38:14;;;;;;;1.67;1.57;;;;;;;19.49;50.06;97703.13;8450294;28;20225;-65
2021/09/19 13:42:17;;;;;;;2.03;1.83;;;;;;;19.28;50.46;97695.28;8450253;28;20203;-66
2021/09/19 13:46:21;;;;;;;1.70;1.60;;;;;;;19.37;50.41;97698.13;8449855;28;20206;-65
2021/09/19 13:50:24;;;;;;;34.80;4.27;;;;;;;19.37;51.83;97698.94;8449985;28;20205;-66
2021/09/19 13:54:28;;;;;;;3.00;2.00;;;;;;;19.47;51.84;97699.81;8449664;28;20249;-66
2021/09/19 13:58:31;;;;;;;1.90;1.80;;;;;;;19.61;52.02;97695.19;8449508;28;20206;-66
2021/09/19 14:02:34;;;;;;;5.07;1.87;;;;;;;19.65;51.40;97699.22;8449587;28;20198;-66
2021/09/19 14:06:37;;;;;;;2.63;1.63;;;;;;;19.75;50.75;97696.69;8449570;28;20395;-64
2021/09/19 14:10:42;;;;;;;2.27;2.07;;;;;;;19.54;50.83;97697.50;8449568;28;20262;-65
2021/09/19 14:14:45;;;;;;;2.13;1.90;;;;;;;19.62;50.13;97692.44;8449316;28;20240;-65
2021/09/19 14:18:47;;;;;;;2.53;1.90;;;;;;;19.36;51.21;97697.25;8449421;28;20205;-64
2021/09/19 14:22:57;;;;;;;2.30;1.97;;;;;;;19.37;50.99;97698.94;8449547;28;20202;-65
2021/09/19 14:27:02;;;;;;;3.10;2.20;;;;;;;19.43;50.46;97700.22;8455107;28;20204;-64
2021/09/19 14:31:05;;;;;;;3.00;2.10;;;;;;;19.43;50.69;97708.09;8456027;28;20219;-64
2021/09/19 14:35:08;;;;;;;2.10;1.90;;;;;;;19.54;50.93;97708.03;8455745;28;20231;-65
2021/09/19 14:39:11;;;;;;;3.07;2.10;;;;;;;19.17;50.54;97713.72;8456033;28;20198;-65
2021/09/19 14:43:16;;;;;;;2.60;1.90;;;;;;;19.28;50.61;97700.53;8456000;28;20224;-65
2021/09/19 14:47:18;;;;;;;2.10;1.90;;;;;;;19.29;50.26;97712.72;8455890;28;20199;-66
2021/09/19 14:51:21;;;;;;;2.27;2.00;;;;;;;19.21;50.27;97711.69;8455758;28;20385;-64
2021/09/19 14:55:24;;;;;;;8.98;2.40;;;;;;;19.53;50.35;97703.72;8454622;28;20441;-64
2021/09/19 14:59:28;;;;;;;2.67;2.00;;;;;;;19.28;50.87;97712.84;8454966;28;20210;-64
2021/09/19 15:03:31;;;;;;;6.90;2.30;;;;;;;19.96;49.32;97710.56;8454958;28;20508;-64
2021/09/19 15:07:34;;;;;;;2.20;2.00;;;;;;;20.33;48.26;97704.72;8455049;28;20198;-64
2021/09/19 15:11:40;;;;;;;2.40;2.20;;;;;;;20.49;47.40;97705.00;8454942;28;20205;-64
2021/09/19 15:15:45;;;;;;;3.50;2.00;;;;;;;20.35;48.48;97699.31;8454668;28;20233;-64
2021/09/19 15:19:48;;;;;;;2.13;1.90;;;;;;;20.21;48.60;97704.00;8454636;28;20206;-64
2021/09/19 15:23:51;;;;;;;5.27;3.10;;;;;;;19.58;49.61;97703.34;8454509;28;20212;-64
2021/09/19 15:27:54;;;;;;;4.73;4.33;;;;;;;19.82;49.34;97711.78;8454396;28;20509;-64
2021/09/19 15:31:59;;;;;;;4.17;3.00;;;;;;;19.68;49.16;97710.28;8454367;28;20203;-64
2021/09/19 15:36:03;;;;;;;6.70;3.50;;;;;;;19.71;49.84;97719.72;8452909;28;20418;-64
2021/09/19 15:40:07;;;;;;;3.93;3.27;;;;;;;19.67;49.88;97723.56;8452840;28;20204;-64
2021/09/19 15:44:10;;;;;;;3.23;2.73;;;;;;;19.53;50.41;97720.31;8453139;28;20204;-64
2021/09/19 15:48:16;;;;;;;2.30;2.10;;;;;;;19.39;49.98;97725.06;8452745;28;20202;-64
2021/09/19 15:52:18;;;;;;;2.13;2.00;;;;;;;19.32;50.16;97725.59;8450207;28;20203;-65
2021/09/19 15:56:21;;;;;;;2.20;2.00;;;;;;;19.06;50.88;97717.28;8452157;28;20428;-65
2021/09/19 16:00:24;;;;;;;2.43;2.23;;;;;;;19.00;51.02;97724.81;8452152;28;20498;-65
2021/09/19 16:04:29;;;;;;;2.50;2.30;;;;;;;19.17;50.93;97723.41;8452470;28;20207;-64
2021/09/19 16:08:32;;;;;;;4.30;2.53;;;;;;;19.11;51.21;97725.59;8452230;28;20198;-64
2021/09/19 16:12:35;;;;;;;2.40;2.20;;;;;;;19.03;50.80;97733.25;8452074;28;20191;-64
2021/09/19 16:16:38;;;;;;;2.60;2.40;;;;;;;18.90;51.50;97733.44;8451968;28;20229;-64
2021/09/19 16:20:43;;;;;;;2.90;2.60;;;;;;;18.79;51.14;97728.22;8451988;28;20533;-64
2021/09/19 16:24:46;;;;;;;3.07;2.77;;;;;;;18.64;51.87;97732.91;8451804;28;20596;-64
2021/09/19 16:28:49;;;;;;;3.57;2.70;;;;;;;18.63;51.63;97735.66;8448973;28;20213;-64
2021/09/19 16:32:52;;;;;;;4.20;2.83;;;;;;;18.53;52.06;97739.03;8451441;28;20210;-64
2021/09/19 16:36:56;;;;;;;4.03;2.70;;;;;;;18.56;51.43;97746.66;8451425;28;20214;-64
2021/09/19 16:40:59;;;;;;;4.17;2.87;;;;;;;18.55;51.59;97742.34;8452098;28;20198;-64
2021/09/19 16:45:02;;;;;;;5.20;3.30;;;;;;;18.35;52.18;97753.59;8452125;28;20202;-65
2021/09/19 16:49:06;;;;;;;3.33;3.00;;;;;;;18.10;52.61;97754.69;8451505;28;20198;-65
2021/09/19 16:53:11;;;;;;;3.47;2.40;;;;;;;18.39;52.10;97748.94;8451772;28;20393;-64
2021/09/19 16:57:14;;;;;;;3.53;3.00;;;;;;;18.36;51.57;97757.91;8451396;28;20248;-64
2021/09/19 17:01:16;;;;;;;5.00;3.10;;;;;;;18.02;52.13;97764.97;8451177;28;20392;-65
2021/09/19 17:05:20;;;;;;;8.37;3.03;;;;;;;18.39;55.87;97765.53;8451195;28;20202;-62
2021/09/19 17:09:24;;;;;;;10.10;2.77;;;;;;;18.57;55.25;97760.59;8451142;28;20198;-63
2021/09/19 17:13:27;;;;;;;6.47;2.83;;;;;;;18.63;56.04;97760.09;8450998;28;20198;-62
2021/09/19 17:17:29;;;;;;;6.53;3.00;;;;;;;18.76;55.73;97767.81;8450935;28;20398;-62
2021/09/19 17:21:32;;;;;;;7.97;2.70;;;;;;;18.72;55.24;97776.88;8450781;28;20205;-61
2021/09/19 17:25:37;;;;;;;6.23;2.80;;;;;;;18.79;54.96;97782.47;8450535;28;20209;-62
2021/09/19 17:29:42;;;;;;;10.40;3.00;;;;;;;18.75;54.14;97790.59;8450439;28;20198;-62
2021/09/19 17:33:45;;;;;;;9.33;3.23;;;;;;;18.34;51.51;97799.13;8450251;28;20225;-64
2021/09/19 17:37:48;;;;;;;5.17;3.10;;;;;;;17.95;51.92;97790.78;8450169;28;20206;-64
2021/09/19 17:41:52;;;;;;;36.00;4.60;;;;;;;18.06;51.78;97790.78;8449976;28;20261;-65
2021/09/19 17:45:55;;;;;;;5.23;3.13;;;;;;;17.95;51.64;97794.25;8449857;28;20202;-64
2021/09/19 17:49:58;;;;;;;4.23;3.07;;;;;;;17.63;52.17;97791.47;8450030;28;20205;-64
2021/09/19 17:54:02;;;;;;;3.57;3.10;;;;;;;17.53;52.08;97793.09;8449694;28;20198;-64
2021/09/19 17:58:07;;;;;;;3.30;3.00;;;;;;;17.42;52.74;97796.53;8449791;28;20263;-64
2021/09/19 18:02:10;;;;;;;4.63;3.10;;;;;;;17.31;52.61;97799.13;8449188;28;20194;-64
2021/09/19 18:06:13;;;;;;;6.70;2.93;;;;;;;17.20;52.93;97802.53;8449581;28;20206;-64
2021/09/19 18:10:16;;;;;;;4.63;3.20;;;;;;;17.14;52.95;97813.44;8449924;28;20209;-64
2021/09/19 18:14:21;;;;;;;4.97;3.40;;;;;;;17.10;52.45;97819.84;8449498;28;20226;-65
2021/09/19 18:18:24;;;;;;;4.87;3.50;;;;;;;17.05;52.39;97822.78;8449548;28;20220;-64
2021/09/19 18:22:26;;;;;;;3.93;3.53;;;;;;;16.96;52.49;97829.53;8449664;28;20205;-64
2021/09/19 18:26:30;;;;;;;6.00;3.10;;;;;;;17.20;52.28;97836.53;8449270;28;20209;-64
2021/09/19 18:30:34;;;;;;;5.57;3.13;;;;;;;16.92;52.25;97841.16;8449545;28;20198;-64
2021/09/19 18:34:37;;;;;;;3.70;3.40;;;;;;;17.03;52.14;97852.63;8448842;28;20233;-65
2021/09/19 18:38:40;;;;;;;4.37;3.33;;;;;;;17.04;51.95;97855.16;8448879;28;20494;-65
2021/09/19 18:42:44;;;;;;;9.57;4.05;;;;;;;17.22;51.20;97854.75;8448409;28;20421;-63
2021/09/19 18:46:48;;;;;;;8.00;3.93;;;;;;;17.03;52.04;97857.88;8449172;28;20206;-64
2021/09/19 18:50:52;;;;;;;6.40;3.60;;;;;;;16.95;51.77;97866.25;8448920;28;20300;-64
2021/09/19 18:54:56;;;;;;;4.17;3.70;;;;;;;16.94;52.25;97875.03;8448601;28;20424;-64
2021/09/19 18:58:59;;;;;;;5.57;3.87;;;;;;;16.98;51.71;97879.97;8448825;28;20478;-64
2021/09/19 19:03:03;;;;;;;4.37;3.97;;;;;;;16.86;52.37;97883.44;8448916;28;20198;-65
2021/09/19 19:07:06;;;;;;;6.63;4.33;;;;;;;16.77;52.42;97891.91;8448746;28;20203;-64
2021/09/19 19:11:09;;;;;;;5.20;4.47;;;;;;;16.94;51.81;97888.13;8450798;28;20198;-64